North Andover, Massachusetts
Current Conditions -  °F | °C
As of 11:54 PM on Saturday 20 Dec 2014 (Local Time) from KLWM Reporting Station
Overcast Overcast  
Wind Chill: 23°   Ceiling: 4300
Heat Index: 31°   Visibility: 10mi
Dew Point: 24°   Wind: 9mph
Humidity: 76%   Direction: 20°NNE
Pressure: 30.3"   Gusts: NA
Location:  42.7°N, 71.13°W
Report Text: KLWM 210454Z AUTO 02008KT 10SM OVC043 M01/M04 A3030 RMK AO2 SLP263 T10061044 400061056
Loading
Personal Weather Stations






























Interactive Weather Map New forecast layout! Learn more

10-Day Weather Forecast

Advertisements
Track Severe Weather on mobile